Zullinger, PA (17272)

12:53 AM EDT on August 23, 2014 (GMT -0400)
Marsh Road - MD/PA Border | Change Station
CLOSE
Current Station
Personal Weather Station
Location: Hagerstown, MD
Elevation: 602 ft
Nearby Weather Stations

Elev 602 ft 39.72 °N, 77.67 °W | Updated 21 minutes ago

Overcast
Overcast
71.2 °F
Feels Like 77 °F
N
0.0
Wind Variable Wind from ESE
Gusts 0.0 mph

Today
High -- | Low -- °F
--% Chance of Precip.
Yesterday
High -- | Low -- °F
Precip. -- in
6:30 AM 7:55 PM
Waning Crescent, 5% visible
Pressure 30.02 in
Visibility 7.0 miles
Clouds Mostly Cloudy 6500 ft
Overcast 12000 ft
Heat Index 77 °F
Dew Point 44 °F
Humidity 38%
Rainfall 0.00 in
Snow Depth Not available.
UV 0 out of 12
Pollen 8.40 out of 12
Air Quality Not available.
Flu Activity Not available.
METAR KHGR 230353Z AUTO 13004KT 7SM BKN065 OVC120 23/19 A3001 RMK AO2 SLP166 T02280194

More Conditions Fewer Conditions

Pressure 30.02 in
Visibility 7.0 miles
Clouds Mostly Cloudy 6500 ft
Overcast 12000 ft
Heat Index 77 °F
Dew Point 44 °F
Humidity 38%
Rainfall 0.00 in
Snow Depth Not available.
UV 0 out of 12
Pollen 8.40 out of 12
Air Quality Not available.
Flu Activity Not available.
METAR KHGR 230353Z AUTO 13004KT 7SM BKN065 OVC120 23/19 A3001 RMK AO2 SLP166 T02280194

More Conditions Fewer Conditions

Nowcast | as of 12:40 am EDT on August 23, 2014

While most areas will remain rain free...a few scattered showers will be across the region through 3 am.

×

10-Day Weather Forecast

Almanac

Astronomy

Aug. 23, 2014 Rise Set
Actual Time 6:30 AM EDT 7:55 PM EDT
Civil Twilight 6:01 AM EDT 8:23 PM EDT
Nautical Twilight 5:27 AM EDT 8:57 PM EDT
Astronomical Twilight 4:51 AM EDT 9:33 PM EDT
Moon 4:44 AM EDT 6:38 PM EDT
Length of Visible Light 14h 21m
Length of Day
13h 25m
Tomorrow will be 2m 25s shorter.
Waning Crescent, 5% of the Moon is Illuminated
Today
Waning Crescent
Aug 25
New
Sep 2
First Quarter
Sep 8
Full
Sep 15
Last Quarter

Today's Extremes

State Highs State Lows

Community

WunderPhotos

Upload Photos

1,746,365 photos uploaded!

WunderBlogs® & News

By Dr. Jeff Masters
Director of Meteorology, Weather Underground
By Kari Strenfel
Meteorologist, Weather Underground
By Christopher C. Burt
Weather Historian, Weather Underground
August 23, 2014
August 23, 2014
August 22, 2014

Nearby

Snow Depth

Station Depth Elevation
No new snow has been reported.

Earthquake Activity

City Distance Mag. Time & Date
No recent earthquake activity has been reported nearby.
Minimum magnitude displayed is 2.5.

Coastal Water Temperatures

Place Temperature
No Stations Reporting

Nearby Weather Stations